Time;durP1;ratioP1;P1;durP2;ratioP2;P2;SDS_P1;SDS_P2;PMS_P1;PMS_P2;Temp;Humidity;BMP_temperature;BMP_pressure;BME280_temperature;BME280_humidity;BME280_pressure;Samples;Min_cycle;Max_cycle;Signal;HPM_P1;HPM_P2
2022/04/08 00:00:39;;;;;;;8.35;1.95;;;5.90;99.90;;;;;;5021417;28;20520;-65
2022/04/08 00:03:06;;;;;;;9.40;1.65;;;5.80;99.90;;;;;;5027693;28;20144;-65
2022/04/08 00:05:32;;;;;;;7.35;1.50;;;5.80;99.90;;;;;;5038615;28;20083;-65
2022/04/08 00:07:58;;;;;;;9.75;1.50;;;5.80;99.90;;;;;;5044532;28;20237;-65
2022/04/08 00:10:24;;;;;;;10.02;1.88;;;5.80;99.90;;;;;;5040441;28;20147;-65
2022/04/08 00:12:50;;;;;;;10.30;1.90;;;5.70;99.90;;;;;;5053881;28;20427;-65
2022/04/08 00:15:16;;;;;;;13.30;2.30;;;5.70;99.90;;;;;;5022932;28;20048;-65
2022/04/08 00:17:42;;;;;;;9.27;1.92;;;5.70;99.90;;;;;;5021973;28;20109;-65
2022/04/08 00:20:09;;;;;;;10.77;2.42;;;5.70;99.90;;;;;;5035881;28;20033;-65
2022/04/08 00:22:40;;;;;;;9.80;1.88;;;5.60;99.90;;;;;;5025491;28;20053;-64
2022/04/08 00:25:09;;;;;;;12.30;1.83;;;5.70;99.90;;;;;;5025509;28;20053;-65
2022/04/08 00:27:35;;;;;;;9.43;1.77;;;5.60;99.90;;;;;;5040228;28;20053;-64
2022/04/08 00:30:01;;;;;;;10.88;2.08;;;5.60;99.90;;;;;;5035942;28;20173;-66
2022/04/08 00:32:28;;;;;;;11.40;1.73;;;5.60;99.90;;;;;;5054107;28;20049;-64
2022/04/08 00:34:54;;;;;;;10.52;1.65;;;5.60;99.90;;;;;;5013869;28;20564;-67
2022/04/08 00:37:20;;;;;;;7.85;1.70;;;5.60;99.90;;;;;;5035882;28;20110;-65
2022/04/08 00:39:46;;;;;;;6.07;1.40;;;5.60;99.90;;;;;;5037248;28;20507;-65
2022/04/08 00:42:15;;;;;;;12.52;2.15;;;5.60;99.90;;;;;;5028243;28;20045;-65
2022/04/08 00:44:41;;;;;;;9.48;1.90;;;5.60;99.90;;;;;;5055556;28;20084;-65
2022/04/08 00:47:08;;;;;;;7.50;1.90;;;5.60;99.90;;;;;;5006262;28;20121;-66
2022/04/08 00:49:37;;;;;;;10.23;1.80;;;5.60;99.90;;;;;;5023020;28;20120;-67
2022/04/08 00:52:04;;;;;;;9.95;1.90;;;5.50;99.90;;;;;;5022476;28;20493;-66
2022/04/08 00:54:30;;;;;;;7.35;1.33;;;5.50;99.90;;;;;;5033583;28;20059;-67
2022/04/08 00:56:57;;;;;;;5.13;1.20;;;5.40;99.90;;;;;;5057512;28;20484;-67
2022/04/08 00:59:27;;;;;;;8.25;1.42;;;5.40;99.90;;;;;;5038938;28;20508;-67
2022/04/08 01:01:53;;;;;;;3.72;1.00;;;5.30;99.90;;;;;;5035447;28;20143;-69
2022/04/08 01:04:23;;;;;;;5.72;1.15;;;5.30;99.90;;;;;;5025834;28;20139;-68
2022/04/08 01:06:49;;;;;;;5.30;0.95;;;5.20;99.90;;;;;;5041869;28;20050;-68
2022/04/08 01:09:16;;;;;;;4.50;0.80;;;5.10;99.90;;;;;;5004907;28;20052;-66
2022/04/08 01:11:43;;;;;;;4.68;1.23;;;4.90;99.90;;;;;;5040015;28;20053;-68
2022/04/08 01:14:11;;;;;;;4.22;0.90;;;4.90;99.90;;;;;;5051556;28;20045;-68
2022/04/08 01:16:37;;;;;;;4.88;0.90;;;4.90;99.90;;;;;;5040948;28;20040;-66
2022/04/08 01:19:04;;;;;;;3.03;1.10;;;4.80;99.90;;;;;;5026572;28;20051;-65
2022/04/08 01:21:33;;;;;;;6.18;1.63;;;4.80;99.90;;;;;;5044146;28;20174;-66
2022/04/08 01:24:01;;;;;;;7.03;1.48;;;4.80;99.90;;;;;;5049710;28;20547;-65
2022/04/08 01:26:27;;;;;;;4.60;1.15;;;4.80;99.90;;;;;;5008406;28;20105;-66
2022/04/08 01:28:55;;;;;;;9.25;1.52;;;4.70;99.90;;;;;;5051608;28;20060;-65
2022/04/08 01:31:24;;;;;;;4.50;1.13;;;4.60;99.90;;;;;;5016983;28;20666;-65
2022/04/08 01:33:51;;;;;;;5.80;1.40;;;4.50;99.90;;;;;;5009898;28;20049;-65
2022/04/08 01:36:18;;;;;;;10.02;1.50;;;4.40;99.90;;;;;;5054582;28;20574;-65
2022/04/08 01:38:44;;;;;;;9.68;1.40;;;4.40;99.90;;;;;;5045788;28;20056;-65
2022/04/08 01:41:10;;;;;;;6.15;1.33;;;4.30;99.90;;;;;;5029689;28;20052;-66
2022/04/08 01:43:36;;;;;;;6.25;1.25;;;4.30;99.90;;;;;;5026629;28;20040;-66
2022/04/08 01:46:02;;;;;;;7.10;1.70;;;4.20;99.90;;;;;;5059891;28;20070;-65
2022/04/08 01:48:29;;;;;;;7.78;1.20;;;4.20;99.90;;;;;;5002985;28;20058;-66
2022/04/08 01:50:55;;;;;;;6.65;1.58;;;4.10;99.90;;;;;;5053640;28;20063;-65
2022/04/08 01:53:21;;;;;;;5.63;1.65;;;4.20;99.90;;;;;;5051015;28;20053;-65
2022/04/08 01:55:47;;;;;;;7.35;1.58;;;4.20;99.90;;;;;;5055856;28;20124;-65
2022/04/08 01:58:13;;;;;;;6.28;1.80;;;4.20;99.90;;;;;;5045951;28;20049;-65
2022/04/08 02:00:39;;;;;;;6.68;1.40;;;4.10;99.90;;;;;;5019838;28;20046;-65
2022/04/08 02:03:05;;;;;;;8.68;1.92;;;4.20;99.90;;;;;;5025520;28;20072;-65
2022/04/08 02:05:32;;;;;;;10.48;1.85;;;4.10;99.90;;;;;;5055383;28;20506;-65
2022/04/08 02:07:58;;;;;;;11.80;1.67;;;4.00;99.90;;;;;;5055772;28;20083;-65
2022/04/08 02:10:25;;;;;;;6.43;1.67;;;4.00;99.90;;;;;;5024055;28;20057;-65
2022/04/08 02:12:52;;;;;;;9.95;2.20;;;4.00;99.90;;;;;;5041857;28;20479;-66
2022/04/08 02:15:26;;;;;;;8.85;1.55;;;3.90;99.90;;;;;;5024795;28;20044;-65
2022/04/08 02:17:52;;;;;;;5.82;1.20;;;3.90;99.90;;;;;;5039722;28;20059;-66
2022/04/08 02:20:18;;;;;;;7.88;1.50;;;3.80;99.90;;;;;;5043567;28;20075;-65
2022/04/08 02:22:44;;;;;;;5.13;1.48;;;3.80;99.90;;;;;;5062603;28;20554;-64
2022/04/08 02:25:11;;;;;;;7.60;1.92;;;3.70;99.90;;;;;;5029432;28;20795;-64
2022/04/08 02:27:38;;;;;;;8.52;1.75;;;3.60;99.90;;;;;;5047527;28;20051;-65
2022/04/08 02:30:05;;;;;;;7.85;2.15;;;3.60;99.90;;;;;;4991329;28;20083;-65
2022/04/08 02:32:31;;;;;;;6.88;1.33;;;3.50;99.90;;;;;;5051815;28;20052;-66
2022/04/08 02:34:57;;;;;;;8.35;1.48;;;3.40;99.90;;;;;;5049000;28;20060;-65
2022/04/08 02:37:23;;;;;;;12.20;2.08;;;3.40;99.90;;;;;;5047916;28;20352;-65
2022/04/08 02:39:49;;;;;;;7.00;2.45;;;3.40;99.90;;;;;;5028156;28;20041;-65
2022/04/08 02:42:15;;;;;;;7.80;1.52;;;3.40;99.90;;;;;;5051798;28;20044;-65
2022/04/08 02:44:41;;;;;;;11.50;2.08;;;3.50;99.90;;;;;;5056712;28;20053;-65
2022/04/08 02:47:07;;;;;;;6.00;2.08;;;3.50;99.90;;;;;;5022518;28;20044;-65
2022/04/08 02:49:34;;;;;;;11.55;2.15;;;3.60;99.90;;;;;;5052698;28;20441;-65
2022/04/08 02:52:00;;;;;;;10.40;1.98;;;3.60;99.90;;;;;;5049951;28;20076;-66
2022/04/08 02:54:26;;;;;;;11.50;2.25;;;3.80;99.90;;;;;;5013785;28;20160;-65
2022/04/08 02:56:52;;;;;;;10.48;2.90;;;3.90;99.90;;;;;;5042127;28;20049;-65
2022/04/08 02:59:18;;;;;;;7.97;2.67;;;4.00;99.90;;;;;;5041564;28;20401;-66
2022/04/08 03:01:44;;;;;;;12.52;1.73;;;4.00;99.90;;;;;;5012985;28;20040;-68
2022/04/08 03:04:10;;;;;;;8.27;1.92;;;4.00;99.90;;;;;;5010116;28;20113;-67
2022/04/08 03:06:37;;;;;;;8.60;1.80;;;4.00;99.90;;;;;;5016691;28;20415;-67
2022/04/08 03:09:03;;;;;;;5.65;1.75;;;4.00;99.90;;;;;;5058665;28;20458;-66
2022/04/08 03:11:29;;;;;;;7.40;2.00;;;4.00;99.90;;;;;;5022994;28;20100;-66
2022/04/08 03:13:59;;;;;;;7.68;1.80;;;4.00;99.90;;;;;;5044892;28;20045;-66
2022/04/08 03:16:26;;;;;;;12.93;2.60;;;3.90;99.90;;;;;;5032359;28;20546;-65
2022/04/08 03:18:52;;;;;;;6.72;1.63;;;3.90;99.90;;;;;;5041518;28;20507;-67
2022/04/08 03:21:18;;;;;;;8.95;1.55;;;3.80;99.90;;;;;;5035555;28;20052;-65
2022/04/08 03:23:44;;;;;;;6.65;1.30;;;3.80;99.90;;;;;;5046874;28;20042;-65
2022/04/08 03:26:11;;;;;;;11.68;2.05;;;3.90;99.90;;;;;;5030847;28;20040;-66
2022/04/08 03:28:37;;;;;;;8.65;2.25;;;3.90;99.90;;;;;;5048204;28;20448;-66
2022/04/08 03:31:04;;;;;;;10.55;2.10;;;4.00;99.90;;;;;;5011725;28;20044;-66
2022/04/08 03:33:30;;;;;;;9.75;1.85;;;4.00;99.90;;;;;;5064456;28;20045;-66
2022/04/08 03:35:56;;;;;;;10.73;1.95;;;4.10;99.90;;;;;;5035824;28;20117;-65
2022/04/08 03:38:22;;;;;;;12.02;2.40;;;4.10;99.90;;;;;;5036201;28;20428;-65
2022/04/08 03:40:48;;;;;;;10.77;2.45;;;4.10;99.90;;;;;;5044029;28;20040;-66
2022/04/08 03:43:14;;;;;;;10.65;2.42;;;4.10;99.90;;;;;;5061547;28;20055;-66
2022/04/08 03:45:40;;;;;;;15.05;2.20;;;4.10;99.90;;;;;;5005617;28;20128;-65
2022/04/08 03:48:09;;;;;;;11.18;2.55;;;4.10;99.90;;;;;;5050534;28;20052;-66
2022/04/08 03:50:35;;;;;;;12.95;2.22;;;4.10;99.90;;;;;;5058759;28;20053;-66
2022/04/08 03:53:02;;;;;;;10.55;2.08;;;4.10;99.90;;;;;;5043717;28;20105;-66
2022/04/08 03:55:28;;;;;;;8.90;1.83;;;4.10;99.90;;;;;;5032746;28;20045;-67
2022/04/08 03:57:54;;;;;;;13.52;2.22;;;4.10;99.90;;;;;;5041334;28;20625;-67
2022/04/08 04:00:20;;;;;;;6.50;1.75;;;4.10;99.90;;;;;;5032309;28;20055;-67
2022/04/08 04:02:47;;;;;;;8.80;1.80;;;4.10;99.90;;;;;;5020815;28;20504;-67
2022/04/08 04:05:13;;;;;;;8.88;1.73;;;4.20;99.90;;;;;;5013296;28;20412;-66
2022/04/08 04:07:39;;;;;;;6.55;1.52;;;4.10;99.90;;;;;;5017894;28;20077;-67
2022/04/08 04:10:06;;;;;;;8.45;1.85;;;4.10;99.90;;;;;;5009726;28;20605;-67
2022/04/08 04:12:33;;;;;;;3.55;1.55;;;4.10;99.90;;;;;;5062403;28;20222;-65
2022/04/08 04:14:59;;;;;;;8.77;1.85;;;4.00;99.90;;;;;;5016238;28;20053;-66
2022/04/08 04:17:27;;;;;;;9.65;1.90;;;4.00;99.90;;;;;;5042124;28;20483;-65
2022/04/08 04:19:54;;;;;;;9.15;2.13;;;4.00;99.90;;;;;;5035836;28;20044;-65
2022/04/08 04:22:20;;;;;;;8.05;2.55;;;3.90;99.90;;;;;;5039908;28;20642;-67
2022/04/08 04:24:46;;;;;;;10.35;2.20;;;3.90;99.90;;;;;;5067509;28;20148;-67
2022/04/08 04:27:12;;;;;;;11.07;2.25;;;3.90;99.90;;;;;;5027677;28;20099;-67
2022/04/08 04:29:38;;;;;;;8.65;2.08;;;3.90;99.90;;;;;;5048749;28;20045;-66
2022/04/08 04:32:06;;;;;;;7.13;2.17;;;3.90;99.90;;;;;;5027826;28;20053;-66
2022/04/08 04:34:33;;;;;;;7.22;1.95;;;3.90;99.90;;;;;;5037069;28;20041;-66
2022/04/08 04:37:00;;;;;;;10.88;1.90;;;3.90;99.90;;;;;;5046300;28;20060;-66
2022/04/08 04:39:26;;;;;;;9.23;2.30;;;3.90;99.90;;;;;;5051141;28;20056;-67
2022/04/08 04:41:52;;;;;;;5.53;1.60;;;3.80;99.90;;;;;;5040396;28;20045;-66
2022/04/08 04:44:18;;;;;;;7.60;1.60;;;3.70;99.90;;;;;;5025373;28;20103;-66
2022/04/08 04:46:44;;;;;;;7.72;2.42;;;3.60;99.90;;;;;;5020363;28;20056;-66
2022/04/08 04:49:11;;;;;;;6.55;1.75;;;3.60;99.90;;;;;;5042532;28;20049;-65
2022/04/08 04:51:37;;;;;;;6.38;1.33;;;3.50;99.90;;;;;;5016672;28;20392;-66
2022/04/08 04:54:03;;;;;;;8.48;1.60;;;3.50;99.90;;;;;;5059541;28;20053;-67
2022/04/08 04:56:29;;;;;;;7.28;1.80;;;3.50;99.90;;;;;;5024717;28;20060;-65
2022/04/08 04:58:55;;;;;;;5.80;1.65;;;3.50;99.90;;;;;;5038655;28;20049;-66
2022/04/08 05:01:21;;;;;;;4.45;1.58;;;3.50;99.90;;;;;;5026934;28;20052;-68
2022/04/08 05:03:47;;;;;;;8.50;2.10;;;3.60;99.90;;;;;;5050084;28;20492;-66
2022/04/08 05:06:13;;;;;;;7.85;1.80;;;3.60;99.90;;;;;;5015875;28;20113;-68
2022/04/08 05:08:39;;;;;;;6.53;1.95;;;3.70;99.90;;;;;;5045268;28;20067;-68
2022/04/08 05:11:05;;;;;;;6.38;1.73;;;3.70;99.90;;;;;;5035651;28;20045;-66
2022/04/08 05:13:32;;;;;;;5.70;1.95;;;3.60;99.90;;;;;;5050938;28;20056;-66
2022/04/08 05:15:59;;;;;;;6.93;1.98;;;3.60;99.90;;;;;;5038299;28;20044;-67
2022/04/08 05:18:25;;;;;;;6.53;1.85;;;3.60;99.90;;;;;;5052911;28;20048;-67
2022/04/08 05:20:52;;;;;;;8.20;1.60;;;3.70;99.90;;;;;;5005533;28;20052;-67
2022/04/08 05:23:19;;;;;;;8.48;1.80;;;3.80;99.90;;;;;;5047911;28;20071;-67
2022/04/08 05:25:45;;;;;;;4.90;1.50;;;3.80;99.90;;;;;;5045978;28;20068;-67
2022/04/08 05:28:12;;;;;;;5.70;1.95;;;3.90;99.90;;;;;;5050810;28;20056;-68
2022/04/08 05:30:39;;;;;;;10.05;1.70;;;4.00;99.90;;;;;;5069268;28;20055;-66
2022/04/08 05:33:05;;;;;;;6.13;1.83;;;4.10;99.90;;;;;;4995582;28;20052;-66
2022/04/08 05:35:31;;;;;;;4.13;1.67;;;4.10;99.90;;;;;;5025709;28;20045;-67
2022/04/08 05:37:57;;;;;;;4.07;1.50;;;4.10;99.90;;;;;;5024054;28;20053;-67
2022/04/08 05:40:23;;;;;;;8.35;2.00;;;4.10;99.90;;;;;;5048926;28;20640;-67
2022/04/08 05:42:50;;;;;;;8.57;1.92;;;4.10;99.90;;;;;;5042765;28;20037;-67
2022/04/08 05:45:22;;;;;;;6.95;2.13;;;4.10;99.90;;;;;;5023619;28;20049;-66
2022/04/08 05:47:50;;;;;;;6.13;2.13;;;4.10;99.90;;;;;;5056256;28;20555;-66
2022/04/08 05:50:18;;;;;;;7.10;1.70;;;4.10;99.90;;;;;;5052734;28;20054;-67
2022/04/08 05:52:47;;;;;;;4.18;1.25;;;4.00;99.90;;;;;;5044264;28;20146;-66
2022/04/08 05:55:14;;;;;;;6.43;1.63;;;4.00;99.90;;;;;;5028738;28;20065;-66
2022/04/08 05:57:41;;;;;;;6.65;1.90;;;4.00;99.90;;;;;;5025189;28;20045;-67
2022/04/08 06:00:13;;;;;;;3.97;1.30;;;4.00;99.90;;;;;;5054246;28;20049;-66
2022/04/08 06:02:43;;;;;;;2.90;1.40;;;4.10;99.90;;;;;;5040377;28;20032;-66
2022/04/08 06:05:09;;;;;;;1.98;0.93;;;4.10;99.90;;;;;;5055657;28;20084;-66
2022/04/08 06:07:50;;;;;;;4.30;1.17;;;4.20;99.90;;;;;;5039641;28;20056;-65
2022/04/08 06:10:18;;;;;;;2.70;1.20;;;4.20;99.90;;;;;;5035248;28;20589;-66
2022/04/08 06:12:46;;;;;;;4.45;1.23;;;4.20;99.90;;;;;;5053109;28;20512;-66
2022/04/08 06:15:13;;;;;;;3.30;1.60;;;4.10;99.90;;;;;;5042866;28;20054;-67
2022/04/08 06:17:39;;;;;;;7.43;2.08;;;4.10;99.90;;;;;;5039969;28;20055;-67
2022/04/08 06:20:07;;;;;;;4.60;1.58;;;4.00;99.90;;;;;;5058912;28;20575;-64
2022/04/08 06:22:33;;;;;;;6.88;2.50;;;3.90;99.90;;;;;;5047251;28;20056;-66
2022/04/08 06:24:59;;;;;;;3.72;1.52;;;3.90;99.90;;;;;;5041828;28;20507;-67
2022/04/08 06:27:25;;;;;;;4.13;1.63;;;3.90;99.90;;;;;;5050684;28;20131;-67
2022/04/08 06:29:52;;;;;;;3.92;1.67;;;3.80;99.90;;;;;;5036204;28;20148;-67
2022/04/08 06:32:18;;;;;;;4.60;2.28;;;3.90;99.90;;;;;;5011455;28;20256;-67
2022/04/08 06:34:44;;;;;;;4.20;1.38;;;3.90;99.90;;;;;;5007255;28;20083;-67
2022/04/08 06:37:10;;;;;;;5.13;1.55;;;4.00;99.90;;;;;;5019263;28;20115;-67
2022/04/08 06:39:36;;;;;;;4.03;1.95;;;4.00;99.90;;;;;;5006172;28;20401;-67
2022/04/08 06:42:02;;;;;;;4.07;1.25;;;4.10;99.90;;;;;;5039699;28;20048;-66
2022/04/08 06:44:28;;;;;;;3.42;1.40;;;4.30;99.90;;;;;;5018513;28;20500;-67
2022/04/08 06:46:54;;;;;;;3.00;1.38;;;4.60;99.90;;;;;;5050983;28;20131;-66
2022/04/08 06:49:21;;;;;;;7.03;1.58;;;4.70;99.90;;;;;;5014348;28;20555;-66
2022/04/08 06:51:47;;;;;;;4.22;1.10;;;5.00;99.90;;;;;;4997203;28;20148;-67
2022/04/08 06:54:13;;;;;;;4.85;1.40;;;5.20;99.90;;;;;;5015546;28;20169;-62
2022/04/08 06:56:39;;;;;;;2.85;1.27;;;5.40;99.90;;;;;;5040064;28;20056;-68
2022/04/08 06:59:06;;;;;;;3.58;1.33;;;5.50;99.90;;;;;;5031512;28;20165;-66
2022/04/08 07:01:33;;;;;;;5.60;1.67;;;5.30;99.90;;;;;;5042534;28;20518;-67
2022/04/08 07:03:59;;;;;;;3.28;1.40;;;5.30;99.90;;;;;;5005399;28;20041;-67
2022/04/08 07:06:25;;;;;;;6.00;1.60;;;5.10;99.90;;;;;;5020462;28;20385;-67
2022/04/08 07:08:51;;;;;;;2.47;1.38;;;5.10;99.90;;;;;;5030990;28;20873;-68
2022/04/08 07:11:17;;;;;;;4.72;1.30;;;5.10;99.90;;;;;;5072964;28;20476;-67
2022/04/08 07:13:43;;;;;;;6.28;1.38;;;5.20;99.90;;;;;;5049515;28;20059;-68
2022/04/08 07:16:09;;;;;;;9.38;7.13;;;5.50;99.90;;;;;;5028901;28;20055;-70
2022/04/08 07:18:35;;;;;;;2.92;0.93;;;5.90;99.90;;;;;;5021089;28;20052;-70
2022/04/08 07:21:02;;;;;;;3.25;1.15;;;6.20;99.90;;;;;;5037128;28;20045;-70
2022/04/08 07:23:28;;;;;;;4.68;1.20;;;6.60;99.90;;;;;;5057028;28;20462;-69
2022/04/08 07:25:54;;;;;;;5.22;1.58;;;7.00;99.90;;;;;;4996073;28;20131;-67
2022/04/08 07:28:20;;;;;;;4.55;1.75;;;7.50;99.90;;;;;;5032208;28;20040;-66
2022/04/08 07:30:48;;;;;;;3.90;1.10;;;8.00;99.90;;;;;;5050503;28;20519;-65
2022/04/08 07:33:14;;;;;;;4.20;1.30;;;8.00;99.90;;;;;;5026524;28;20061;-69
2022/04/08 07:35:41;;;;;;;5.03;1.60;;;8.10;99.90;;;;;;5032300;28;20051;-78
2022/04/08 07:38:07;;;;;;;4.85;1.40;;;8.70;99.90;;;;;;5011193;28;20105;-77
2022/04/08 07:40:33;;;;;;;5.10;1.45;;;8.70;99.90;;;;;;5023660;28;20052;-78
2022/04/08 07:42:59;;;;;;;7.03;1.30;;;8.70;99.90;;;;;;5062430;28;20066;-68
2022/04/08 07:45:29;;;;;;;8.07;1.52;;;8.60;99.90;;;;;;5015640;28;20088;-80
2022/04/08 07:47:58;;;;;;;6.35;1.33;;;8.40;99.90;;;;;;5055055;28;20059;-75
2022/04/08 07:50:26;;;;;;;5.95;1.80;;;8.20;99.90;;;;;;5024897;28;20610;-75
2022/04/08 07:52:52;;;;;;;10.50;2.13;;;7.70;99.90;;;;;;5025729;28;20078;-73
2022/04/08 07:55:20;;;;;;;7.38;2.00;;;7.10;99.90;;;;;;5040900;28;20523;-78
2022/04/08 07:57:48;;;;;;;8.68;2.03;;;6.70;99.90;;;;;;5026895;28;20088;-81
2022/04/08 08:00:17;;;;;;;7.63;2.03;;;6.40;99.90;;;;;;5038878;28;20053;-80
2022/04/08 08:02:43;;;;;;;10.70;2.40;;;6.00;99.90;;;;;;5026687;28;20049;-79
2022/04/08 08:05:10;;;;;;;11.50;2.53;;;5.90;99.90;;;;;;5033887;28;20416;-77
2022/04/08 08:07:50;;;;;;;11.68;3.42;;;5.70;99.90;;;;;;5020112;28;20044;-70
2022/04/08 08:10:28;;;;;;;9.85;3.13;;;5.90;99.90;;;;;;5052797;28;20615;-72
2022/04/08 08:12:55;;;;;;;7.15;2.17;;;6.20;99.90;;;;;;5045379;28;20060;-68
2022/04/08 08:15:22;;;;;;;8.40;1.88;;;6.60;99.90;;;;;;5056793;28;20067;-71
2022/04/08 08:17:50;;;;;;;6.15;1.63;;;6.90;99.90;;;;;;5022079;28;20059;-72
2022/04/08 08:20:18;;;;;;;4.57;1.70;;;7.10;99.90;;;;;;5015227;28;20041;-72
2022/04/08 08:22:45;;;;;;;10.02;2.42;;;7.40;99.90;;;;;;5002255;28;20066;-74
2022/04/08 08:25:12;;;;;;;7.22;1.92;;;7.50;99.90;;;;;;5031014;28;20075;-67
2022/04/08 08:27:44;;;;;;;8.88;1.75;;;7.80;99.90;;;;;;5032720;28;20052;-67
2022/04/08 08:30:12;;;;;;;5.30;2.05;;;8.40;99.90;;;;;;5030666;28;20051;-67
2022/04/08 08:32:39;;;;;;;7.20;2.13;;;8.50;99.90;;;;;;5020922;28;20389;-67
2022/04/08 08:35:07;;;;;;;4.38;1.73;;;8.90;99.90;;;;;;5022076;28;20137;-67
2022/04/08 08:37:35;;;;;;;3.80;1.23;;;9.00;99.90;;;;;;5030191;28;20092;-67
2022/04/08 08:40:03;;;;;;;5.45;2.53;;;8.90;99.90;;;;;;5025276;28;20370;-60
2022/04/08 08:42:30;;;;;;;5.15;1.65;;;8.90;99.90;;;;;;5059462;28;20052;-67
2022/04/08 08:44:56;;;;;;;7.85;2.25;;;9.20;99.90;;;;;;5038367;28;20049;-65
2022/04/08 08:47:25;;;;;;;3.97;1.63;;;9.20;99.90;;;;;;5059132;28;20048;-65
2022/04/08 08:49:51;;;;;;;5.55;2.05;;;9.60;99.90;;;;;;5022936;28;20375;-71
2022/04/08 08:52:19;;;;;;;4.68;1.67;;;10.00;99.90;;;;;;5039405;28;20056;-66
2022/04/08 08:54:49;;;;;;;4.45;1.50;;;10.20;99.90;;;;;;5054875;28;20542;-70
2022/04/08 08:57:19;;;;;;;6.75;1.90;;;10.40;99.90;;;;;;5056670;28;20131;-70
2022/04/08 08:59:46;;;;;;;3.40;1.33;;;10.50;99.90;;;;;;5063833;28;20037;-70
2022/04/08 09:02:19;;;;;;;4.57;1.48;;;10.70;99.90;;;;;;5039168;28;20284;-70
2022/04/08 09:04:46;;;;;;;8.20;1.90;;;11.00;99.90;;;;;;5044850;28;20484;-70
2022/04/08 09:07:27;;;;;;;5.57;1.50;;;11.00;99.90;;;;;;5023021;28;20045;-69
2022/04/08 09:09:55;;;;;;;4.93;2.00;;;10.40;99.90;;;;;;5021048;28;20072;-68
2022/04/08 09:12:31;;;;;;;6.07;1.17;;;9.90;99.90;;;;;;5022131;28;20402;-68
2022/04/08 09:14:59;;;;;;;6.78;1.98;;;9.50;99.90;;;;;;5025601;28;20071;-68
2022/04/08 09:17:26;;;;;;;5.15;1.50;;;9.10;99.90;;;;;;5039335;28;20089;-68
2022/04/08 09:19:54;;;;;;;3.75;1.60;;;9.00;99.90;;;;;;5015232;28;20102;-64
2022/04/08 09:22:25;;;;;;;5.75;1.70;;;9.40;99.90;;;;;;5039033;28;20569;-72
2022/04/08 09:24:51;;;;;;;11.27;2.28;;;10.30;99.90;;;;;;5056705;28;20053;-72
2022/04/08 09:27:17;;;;;;;8.77;2.20;;;10.50;99.90;;;;;;5026945;28;20056;-71
2022/04/08 09:29:44;;;;;;;7.72;2.47;;;10.50;99.90;;;;;;5008186;28;20439;-71
2022/04/08 09:32:12;;;;;;;6.13;1.92;;;10.80;99.90;;;;;;5024633;28;20151;-60
2022/04/08 09:34:41;;;;;;;8.90;2.40;;;10.50;99.90;;;;;;5058428;28;20080;-62
2022/04/08 09:37:13;;;;;;;7.28;2.63;;;10.30;99.90;;;;;;5057964;28;20117;-61
2022/04/08 09:39:59;;;;;;;10.75;2.75;;;9.80;99.90;;;;;;5013456;28;20049;-60
2022/04/08 09:42:44;;;;;;;15.27;3.00;;;9.60;99.90;;;;;;5045490;28;20041;-59
2022/04/08 09:45:11;;;;;;;14.30;3.75;;;9.40;99.90;;;;;;5039390;28;20091;-61
2022/04/08 09:47:38;;;;;;;13.00;3.35;;;8.80;99.90;;;;;;5043142;28;20044;-59
2022/04/08 09:50:05;;;;;;;13.75;3.58;;;8.80;99.90;;;;;;5047222;28;20072;-59
2022/04/08 09:52:32;;;;;;;11.85;4.00;;;8.60;99.90;;;;;;5049530;28;20052;-59
2022/04/08 09:55:00;;;;;;;12.35;3.20;;;8.60;99.90;;;;;;5035608;28;20527;-59
2022/04/08 09:57:33;;;;;;;10.48;3.22;;;8.50;99.90;;;;;;5031876;28;20488;-60
2022/04/08 10:00:01;;;;;;;9.90;2.95;;;8.50;99.90;;;;;;5030570;28;20504;-59
2022/04/08 10:02:29;;;;;;;12.90;3.10;;;8.50;99.90;;;;;;5046364;28;20046;-60
2022/04/08 10:04:59;;;;;;;12.10;3.60;;;8.30;99.90;;;;;;5026237;28;20053;-59
2022/04/08 10:07:26;;;;;;;11.20;3.45;;;8.10;99.90;;;;;;5035532;28;20048;-55
2022/04/08 10:09:58;;;;;;;15.93;3.88;;;8.10;99.90;;;;;;5035803;28;20101;-60
2022/04/08 10:12:45;;;;;;;14.43;3.72;;;8.10;99.90;;;;;;5040930;28;20061;-58
2022/04/08 10:15:23;;;;;;;8.07;2.63;;;8.20;99.90;;;;;;5038944;28;20046;-59
2022/04/08 10:18:00;;;;;;;10.23;3.00;;;9.20;99.90;;;;;;5052633;28;20055;-58
2022/04/08 10:20:31;;;;;;;12.20;3.75;;;9.70;99.90;;;;;;5035990;28;20053;-61
2022/04/08 10:23:09;;;;;;;14.30;2.70;;;9.60;99.90;;;;;;5056943;28;20049;-56
2022/04/08 10:25:37;;;;;;;13.18;2.75;;;9.30;99.90;;;;;;5047378;28;20045;-59
2022/04/08 10:28:08;;;;;;;5.97;2.00;;;9.00;99.90;;;;;;5053411;28;20131;-55
2022/04/08 10:30:43;;;;;;;12.55;3.20;;;8.90;99.90;;;;;;5018018;28;20120;-56
2022/04/08 10:33:09;;;;;;;7.65;2.33;;;8.60;99.90;;;;;;5041002;28;20049;-60
2022/04/08 10:35:37;;;;;;;10.85;2.80;;;8.60;99.90;;;;;;5049446;28;20544;-60
2022/04/08 10:38:07;;;;;;;9.30;2.50;;;8.50;99.90;;;;;;5049399;28;20215;-60
2022/04/08 10:40:39;;;;;;;12.15;3.30;;;8.30;99.90;;;;;;5057677;28;20727;-55
2022/04/08 10:43:08;;;;;;;9.77;2.58;;;8.00;99.90;;;;;;5042973;28;20037;-55
2022/04/08 10:45:35;;;;;;;7.88;2.30;;;7.80;99.90;;;;;;5041164;28;20464;-59
2022/04/08 10:48:10;;;;;;;7.85;2.95;;;7.40;99.90;;;;;;5032852;28;20049;-60
2022/04/08 10:50:38;;;;;;;8.63;2.30;;;7.20;99.90;;;;;;5044359;28;20087;-59
2022/04/08 10:53:09;;;;;;;11.93;2.80;;;6.90;99.90;;;;;;5045173;28;20138;-66
2022/04/08 10:55:53;;;;;;;6.93;2.47;;;6.60;99.90;;;;;;5040682;28;20408;-61
2022/04/08 10:58:38;;;;;;;10.60;3.53;;;6.30;99.90;;;;;;5058740;28;20052;-58
2022/04/08 11:01:22;;;;;;;8.05;3.05;;;6.30;99.90;;;;;;5039189;28;20044;-51
2022/04/08 11:04:03;;;;;;;5.25;2.40;;;6.10;99.90;;;;;;5035614;28;20049;-57
2022/04/08 11:06:31;;;;;;;5.85;2.55;;;6.10;99.90;;;;;;5034051;28;20335;-55
2022/04/08 11:09:09;;;;;;;7.40;1.95;;;6.20;99.90;;;;;;5044973;28;20036;-53
2022/04/08 11:11:37;;;;;;;9.70;2.28;;;6.30;99.90;;;;;;5023375;28;20042;-56
2022/04/08 11:14:05;;;;;;;7.50;2.00;;;6.40;99.90;;;;;;5022429;28;20063;-57
2022/04/08 11:16:33;;;;;;;6.75;2.25;;;6.50;99.90;;;;;;5037330;28;20044;-56
2022/04/08 11:19:00;;;;;;;11.85;2.45;;;6.60;99.90;;;;;;5029852;28;20044;-56
2022/04/08 11:21:28;;;;;;;7.22;2.33;;;6.60;99.90;;;;;;5031863;28;20585;-55
2022/04/08 11:24:01;;;;;;;7.15;2.00;;;6.70;99.90;;;;;;5028059;28;20050;-57
2022/04/08 11:26:29;;;;;;;10.27;2.28;;;7.00;99.90;;;;;;5034400;28;20049;-51
2022/04/08 11:28:57;;;;;;;7.18;2.90;;;7.60;99.90;;;;;;5055807;28;20055;-54
2022/04/08 11:31:23;;;;;;;6.07;2.10;;;8.50;99.90;;;;;;5039525;28;20132;-56
2022/04/08 11:33:49;;;;;;;9.73;1.80;;;8.90;99.90;;;;;;5058153;28;20462;-56
2022/04/08 11:36:22;;;;;;;9.23;2.38;;;9.20;99.90;;;;;;5057984;28;20052;-56
2022/04/08 11:38:48;;;;;;;6.32;2.13;;;9.60;99.90;;;;;;5046527;28;20139;-57
2022/04/08 11:41:19;;;;;;;6.38;1.65;;;10.40;99.90;;;;;;5019733;28;20394;-56
2022/04/08 11:43:46;;;;;;;5.78;1.70;;;11.20;99.90;;;;;;5052383;28;20573;-56
2022/04/08 11:46:16;;;;;;;7.78;3.10;;;11.20;99.90;;;;;;5061689;28;20123;-55
2022/04/08 11:48:43;;;;;;;8.05;2.50;;;11.80;99.90;;;;;;5065228;28;20403;-50
2022/04/08 11:51:09;;;;;;;7.05;1.40;;;11.80;99.90;;;;;;5015550;28;20412;-53
2022/04/08 11:53:47;;;;;;;12.63;7.93;;;11.80;99.90;;;;;;5049769;28;20391;-51
2022/04/08 11:56:21;;;;;;;7.97;1.52;;;12.10;99.90;;;;;;5051748;28;20055;-52
2022/04/08 11:58:59;;;;;;;8.27;1.33;;;12.00;99.90;;;;;;5039533;28;20598;-53
2022/04/08 12:01:29;;;;;;;5.95;2.22;;;12.00;99.90;;;;;;5056433;28;20424;-52
2022/04/08 12:04:03;;;;;;;6.05;1.40;;;12.40;99.90;;;;;;5047416;28;20506;-52
2022/04/08 12:06:46;;;;;;;5.15;1.70;;;12.90;99.90;;;;;;5044092;28;20063;-52
2022/04/08 12:09:14;;;;;;;7.65;2.05;;;12.70;99.90;;;;;;5042787;28;20729;-53
2022/04/08 12:11:44;;;;;;;7.45;2.35;;;11.90;99.90;;;;;;5035164;28;20789;-49
2022/04/08 12:14:10;;;;;;;25.65;15.52;;;11.40;99.90;;;;;;5033069;28;20128;-49
2022/04/08 12:16:39;;;;;;;8.90;2.75;;;11.60;99.90;;;;;;5042228;28;20540;-51
2022/04/08 12:19:07;;;;;;;8.23;3.42;;;12.40;99.90;;;;;;5028242;28;20106;-52
2022/04/08 12:21:33;;;;;;;9.48;2.15;;;12.50;99.90;;;;;;5063470;28;20510;-54
2022/04/08 12:24:01;;;;;;;7.68;1.90;;;11.90;99.90;;;;;;5020944;28;20083;-54
2022/04/08 12:26:32;;;;;;;6.57;2.60;;;11.30;99.90;;;;;;5043973;28;20504;-52
2022/04/08 12:29:12;;;;;;;6.68;1.75;;;11.60;99.90;;;;;;5030188;28;20531;-52
2022/04/08 12:31:47;;;;;;;7.32;1.80;;;11.60;99.90;;;;;;5045162;28;20107;-55
2022/04/08 12:34:14;;;;;;;5.85;1.50;;;11.90;99.90;;;;;;5036983;28;20053;-53
2022/04/08 12:36:46;;;;;;;8.13;1.80;;;12.40;99.90;;;;;;5053965;28;20049;-60
2022/04/08 12:39:12;;;;;;;8.85;4.13;;;12.30;99.90;;;;;;5026792;28;20106;-59
2022/04/08 12:41:40;;;;;;;13.63;5.78;;;12.20;99.90;;;;;;5039557;28;20076;-55
2022/04/08 12:44:06;;;;;;;7.57;1.60;;;12.00;99.90;;;;;;5044658;28;20052;-56
2022/04/08 12:46:32;;;;;;;9.27;2.15;;;12.00;99.90;;;;;;5041168;28;20599;-52
2022/04/08 12:48:58;;;;;;;5.25;1.30;;;12.30;99.90;;;;;;5042453;28;20454;-50
2022/04/08 12:51:25;;;;;;;6.82;1.77;;;12.20;99.90;;;;;;5042891;28;20060;-52
2022/04/08 12:53:51;;;;;;;8.02;1.60;;;12.60;99.90;;;;;;5016859;28;20053;-55
2022/04/08 12:56:17;;;;;;;7.05;1.50;;;12.80;99.90;;;;;;5049225;28;20057;-54